Nibulon 5 — UUAZ2 — position and weather

sailwx.info

Track history (hours):
 
Tides and Currents Weather Stations Pressure Air Temp Water Temp Dewpoint Dewpoint Depression Visibility Wind Speed Wind Dir Waves Ship Positions

Nibulon 5

Last reported at 2017-Dec-07 20:27 UTC. Time now 2017-Dec-11 09:29 UTC.
Position N 47°31' E 034°48'.

Length 38 m; draft 2.6 m.

Type: Tug. MMSI: 272735000.

Date/timePositionNaut miles runAvg speedWind from/ knotsBaromVisibWave heightAir tempDewpointWater temp
2017-Dec-07 20:27N 47°31' E 034°48'2 3.7
2017-Dec-07 20:00N 47°32' E 034°50'7 3.6
2017-Dec-07 18:00N 47°34' E 035°00'2 3.6
2017-Dec-07 17:30N 47°35' E 035°02'2 3.0
2017-Dec-07 17:01N 47°37' E 035°03'0 0.5
2017-Dec-07 16:30N 47°37' E 035°03'0 0.1
2017-Dec-07 13:27N 47°37' E 035°03'0 0.0
2017-Dec-07 09:08N 47°37' E 035°03'0 1.4
2017-Dec-07 09:00N 47°37' E 035°03'1 1.3
2017-Dec-07 08:30N 47°37' E 035°04'2 3.4
2017-Dec-07 08:00N 47°38' E 035°06'2 3.7
2017-Dec-07 07:30N 47°40' E 035°07'2 3.8
2017-Dec-07 07:00N 47°42' E 035°08'2 3.4
2017-Dec-07 06:30N 47°43' E 035°09'2 3.3
2017-Dec-07 06:00N 47°45' E 035°10'2 3.7
2017-Dec-07 05:30N 47°47' E 035°09'2 3.6
2017-Dec-07 05:00N 47°49' E 035°09'0 0.3
2017-Dec-07 04:19N 47°49' E 035°09'0 0.0
2017-Dec-07 03:55N 47°49' E 035°09'0 0.0
2017-Dec-07 03:25N 47°49' E 035°09'0 0.0
2017-Dec-07 02:55N 47°49' E 035°09'0 0.0
2017-Dec-07 02:25N 47°49' E 035°09'0 0.0
2017-Dec-07 01:55N 47°49' E 035°09'0 0.3
2017-Dec-07 01:30N 47°49' E 035°09'2 3.7
2017-Dec-07 01:00N 47°50' E 035°07'2 4.0
2017-Dec-07 00:30N 47°51' E 035°05'1 1.1
2017-Dec-07 00:00N 47°52' E 035°05'0 0.9
2017-Dec-06 23:30N 47°52' E 035°06'1 1.3
2017-Dec-06 23:00N 47°53' E 035°06'1 2.1
2017-Dec-06 22:30N 47°52' E 035°06'1 2.7
2017-Dec-06 22:00N 47°51' E 035°05'3 6.4
2017-Dec-06 21:30N 47°49' E 035°09'1 2.4
2017-Dec-06 21:00N 47°49' E 035°08'  
Track history (hours):
 
Tides and Currents Weather Stations Pressure Air Temp Water Temp Dewpoint Dewpoint Depression Visibility Wind Speed Wind Dir Waves Ship Positions

Nibulon 5

Last reported at 2017-Dec-07 20:27 UTC. Time now 2017-Dec-11 09:29 UTC.
Position N 47°31' E 034°48'.

Length 38 m; draft 2.6 m.

Type: Tug. MMSI: 272735000.

Date/timePositionNaut miles runAvg speedWind from/ knotsBaromVisibWave heightAir tempDewpointWater temp
2017-Dec-07 20:27N 47°31' E 034°48'2 3.7
2017-Dec-07 20:00N 47°32' E 034°50'7 3.6
2017-Dec-07 18:00N 47°34' E 035°00'2 3.6
2017-Dec-07 17:30N 47°35' E 035°02'2 3.0
2017-Dec-07 17:01N 47°37' E 035°03'0 0.5
2017-Dec-07 16:30N 47°37' E 035°03'0 0.1
2017-Dec-07 13:27N 47°37' E 035°03'0 0.0
2017-Dec-07 09:08N 47°37' E 035°03'0 1.4
2017-Dec-07 09:00N 47°37' E 035°03'1 1.3
2017-Dec-07 08:30N 47°37' E 035°04'2 3.4
2017-Dec-07 08:00N 47°38' E 035°06'2 3.7
2017-Dec-07 07:30N 47°40' E 035°07'2 3.8
2017-Dec-07 07:00N 47°42' E 035°08'2 3.4
2017-Dec-07 06:30N 47°43' E 035°09'2 3.3
2017-Dec-07 06:00N 47°45' E 035°10'2 3.7
2017-Dec-07 05:30N 47°47' E 035°09'2 3.6
2017-Dec-07 05:00N 47°49' E 035°09'0 0.3
2017-Dec-07 04:19N 47°49' E 035°09'0 0.0
2017-Dec-07 03:55N 47°49' E 035°09'0 0.0
2017-Dec-07 03:25N 47°49' E 035°09'0 0.0
2017-Dec-07 02:55N 47°49' E 035°09'0 0.0
2017-Dec-07 02:25N 47°49' E 035°09'0 0.0
2017-Dec-07 01:55N 47°49' E 035°09'0 0.3
2017-Dec-07 01:30N 47°49' E 035°09'2 3.7
2017-Dec-07 01:00N 47°50' E 035°07'2 4.0
2017-Dec-07 00:30N 47°51' E 035°05'1 1.1
2017-Dec-07 00:00N 47°52' E 035°05'0 0.9
2017-Dec-06 23:30N 47°52' E 035°06'1 1.3
2017-Dec-06 23:00N 47°53' E 035°06'1 2.1
2017-Dec-06 22:30N 47°52' E 035°06'1 2.7
2017-Dec-06 22:00N 47°51' E 035°05'3 6.4
2017-Dec-06 21:30N 47°49' E 035°09'1 2.4
2017-Dec-06 21:00N 47°49' E 035°08'  

Dump ship's entire track history